Time;durP1;ratioP1;P1;durP2;ratioP2;P2;SDS_P1;SDS_P2;PMS_P1;PMS_P2;Temp;Humidity;BMP_temperature;BMP_pressure;BME280_temperature;BME280_humidity;BME280_pressure;Samples;Min_cycle;Max_cycle;Signal;HPM_P1;HPM_P2
2022/10/22 00:04:19;;;;;;;3.08;2.78;;;;;;;19.16;57.51;96588.69;10429789;28;20045;-60
2022/10/22 00:09:39;;;;;;;3.60;3.30;;;;;;;19.15;57.71;96589.81;10424636;28;20417;-60
2022/10/22 00:14:58;;;;;;;3.80;3.33;;;;;;;19.14;57.74;96587.44;10416216;28;20060;-60
2022/10/22 00:20:18;;;;;;;3.72;3.33;;;;;;;19.15;57.67;96584.41;10415975;28;20413;-60
2022/10/22 00:25:37;;;;;;;3.60;3.30;;;;;;;19.15;57.73;96592.53;10418226;28;20053;-60
2022/10/22 00:30:58;;;;;;;3.60;3.20;;;;;;;19.13;57.70;96573.16;10415590;28;20099;-60
2022/10/22 00:36:18;;;;;;;3.35;2.88;;;;;;;19.13;57.59;96569.63;10418224;28;20057;-59
2022/10/22 00:41:38;;;;;;;3.30;3.00;;;;;;;19.12;57.72;96582.34;10429896;28;20103;-60
2022/10/22 00:46:58;;;;;;;4.03;3.33;;;;;;;19.14;57.58;96584.75;10407868;28;20421;-61
2022/10/22 00:52:17;;;;;;;3.55;3.10;;;;;;;19.11;57.66;96578.09;10422542;28;20056;-59
2022/10/22 00:57:37;;;;;;;3.38;2.92;;;;;;;19.12;57.53;96574.25;10413956;28;20421;-60
2022/10/22 01:02:57;;;;;;;3.25;2.95;;;;;;;19.11;57.61;96582.69;10413621;28;20049;-60
2022/10/22 01:08:54;;;;;;;3.15;2.80;;;;;;;19.11;57.58;96583.50;10405621;28;20509;-60
2022/10/22 01:14:18;;;;;;;3.13;2.83;;;;;;;19.10;57.57;96568.38;10399416;28;20057;-60
2022/10/22 01:19:54;;;;;;;3.20;2.90;;;;;;;19.11;57.57;96571.88;10413052;28;20492;-58
2022/10/22 01:25:36;;;;;;;3.38;3.03;;;;;;;19.09;57.62;96571.41;10415136;28;20088;-60
2022/10/22 01:30:56;;;;;;;3.20;2.80;;;;;;;19.09;57.52;96557.91;10397786;28;20508;-60
2022/10/22 01:36:16;;;;;;;3.30;3.00;;;;;;;19.09;57.58;96563.31;10404181;28;20107;-60
2022/10/22 01:41:38;;;;;;;3.10;2.90;;;;;;;19.08;57.69;96540.16;10426563;28;20527;-60
2022/10/22 01:47:12;;;;;;;3.00;2.70;;;;;;;19.07;57.64;96547.47;10413313;28;20084;-59
2022/10/22 01:52:40;;;;;;;3.47;3.10;;;;;;;19.07;57.49;96543.94;10415874;28;20054;-59
2022/10/22 01:58:18;;;;;;;3.05;2.70;;;;;;;19.07;57.51;96533.97;10426269;28;20416;-59
2022/10/22 02:03:55;;;;;;;3.30;3.00;;;;;;;19.05;57.51;96533.50;10412689;28;20402;-60
2022/10/22 02:09:16;;;;;;;3.20;2.90;;;;;;;19.05;57.67;96530.00;10399746;28;20115;-59
2022/10/22 02:14:39;;;;;;;3.15;2.80;;;;;;;19.05;57.73;96530.00;10409827;28;20080;-60
2022/10/22 02:20:07;;;;;;;2.95;2.65;;;;;;;19.05;57.65;96525.41;10423221;28;20053;-60
2022/10/22 02:25:31;;;;;;;3.17;2.88;;;;;;;19.03;57.60;96527.59;10433475;28;20496;-56
2022/10/22 02:30:56;;;;;;;3.22;2.65;;;;;;;19.04;57.56;96531.91;10414600;28;20082;-60
2022/10/22 02:36:16;;;;;;;3.53;3.00;;;;;;;19.04;57.66;96536.53;10407507;28;20057;-59
2022/10/22 02:41:36;;;;;;;2.92;2.70;;;;;;;19.04;57.53;96545.41;10419875;28;20056;-60
2022/10/22 02:46:55;;;;;;;3.67;2.85;;;;;;;19.03;57.59;96516.03;10419724;28;20060;-60
2022/10/22 02:52:15;;;;;;;3.80;2.58;;;;;;;19.02;57.70;96520.66;10439178;28;20054;-60
2022/10/22 02:57:34;;;;;;;3.10;2.80;;;;;;;19.02;57.67;96525.25;10419138;28;20057;-57
2022/10/22 03:02:53;;;;;;;2.88;2.67;;;;;;;19.02;57.67;96542.25;10419046;28;20103;-60
2022/10/22 03:08:13;;;;;;;2.70;2.50;;;;;;;19.02;57.70;96568.47;10435870;28;20045;-60
2022/10/22 03:13:32;;;;;;;3.70;2.60;;;;;;;19.01;57.72;96583.06;10418961;28;20054;-60
2022/10/22 03:18:52;;;;;;;3.08;2.78;;;;;;;19.01;57.66;96573.03;10410195;28;20057;-59
2022/10/22 03:24:17;;;;;;;3.03;2.60;;;;;;;19.00;57.83;96560.69;10418080;28;20056;-60
2022/10/22 03:29:38;;;;;;;2.70;2.50;;;;;;;19.00;57.80;96530.97;10402880;28;20459;-60
2022/10/22 03:34:57;;;;;;;2.70;2.50;;;;;;;18.99;57.63;96556.38;10407067;28;20061;-59
2022/10/22 03:40:17;;;;;;;2.90;2.70;;;;;;;18.99;57.70;96552.91;10417201;28;20054;-60
2022/10/22 03:45:36;;;;;;;2.65;2.38;;;;;;;18.98;57.76;96535.91;10430738;28;20049;-60
2022/10/22 03:50:55;;;;;;;3.00;2.70;;;;;;;18.99;57.70;96539.41;10420934;28;20409;-60
2022/10/22 03:56:15;;;;;;;3.33;2.60;;;;;;;18.98;57.62;96556.72;10417368;28;20054;-60
2022/10/22 04:01:34;;;;;;;3.40;2.60;;;;;;;18.98;57.69;96565.59;10430116;28;20048;-60
2022/10/22 04:06:54;;;;;;;2.75;2.55;;;;;;;18.97;57.67;96582.91;10413599;28;20057;-60
2022/10/22 04:12:13;;;;;;;2.97;2.40;;;;;;;18.96;57.62;96579.44;10417032;28;20053;-60
2022/10/22 04:17:34;;;;;;;2.65;2.45;;;;;;;18.95;57.72;96583.25;10419761;28;20060;-59
2022/10/22 04:22:54;;;;;;;2.65;2.45;;;;;;;18.97;57.70;96604.50;10415695;28;20057;-60
2022/10/22 04:28:13;;;;;;;2.70;2.50;;;;;;;18.95;57.70;96591.34;10415976;28;20068;-59
2022/10/22 04:33:32;;;;;;;2.60;2.40;;;;;;;18.95;57.76;96585.97;10421486;28;20053;-60
2022/10/22 04:38:57;;;;;;;2.58;2.38;;;;;;;18.95;57.70;96602.16;10414170;28;20080;-60
2022/10/22 04:44:16;;;;;;;2.67;2.47;;;;;;;18.94;57.64;96621.38;10415276;28;20053;-60
2022/10/22 04:49:35;;;;;;;2.65;2.45;;;;;;;18.94;57.75;96621.38;10419094;28;20057;-59
2022/10/22 04:54:55;;;;;;;3.00;2.50;;;;;;;18.93;57.67;96625.97;10428124;28;20101;-60
2022/10/22 05:00:15;;;;;;;2.30;2.10;;;;;;;18.94;57.68;96616.75;10427785;28;20050;-60
2022/10/22 05:05:34;;;;;;;2.85;2.40;;;;;;;18.93;57.76;96614.38;10417071;28;20111;-60
2022/10/22 05:10:54;;;;;;;2.53;2.33;;;;;;;18.92;57.79;96602.78;10403986;28;20057;-59
2022/10/22 05:16:14;;;;;;;2.40;2.20;;;;;;;18.92;57.78;96599.31;10417978;28;20062;-58
2022/10/22 05:21:33;;;;;;;2.47;2.25;;;;;;;18.92;57.86;96602.00;10414101;28;20050;-60
2022/10/22 05:26:54;;;;;;;2.50;2.30;;;;;;;18.91;57.87;96595.78;10426735;28;20623;-60
2022/10/22 05:32:14;;;;;;;2.40;2.20;;;;;;;18.91;57.75;96592.31;10416567;28;20053;-60
2022/10/22 05:37:33;;;;;;;2.80;2.35;;;;;;;18.91;57.86;96605.81;10426654;28;20050;-59
2022/10/22 05:42:53;;;;;;;2.30;2.10;;;;;;;18.90;57.90;96615.81;10413206;28;20061;-60
2022/10/22 05:48:12;;;;;;;3.20;2.60;;;;;;;18.90;57.93;96632.00;10410209;28;20053;-60
2022/10/22 05:53:32;;;;;;;3.08;2.38;;;;;;;18.89;57.85;96635.03;10419870;28;20057;-60
2022/10/22 05:58:51;;;;;;;3.40;2.20;;;;;;;18.89;57.86;96622.31;10422969;28;20057;-60
2022/10/22 06:04:12;;;;;;;2.47;2.28;;;;;;;18.89;57.76;96625.03;10433957;28;20046;-60
2022/10/22 06:09:34;;;;;;;2.28;2.08;;;;;;;18.89;57.76;96638.50;10420287;28;20096;-60
2022/10/22 06:14:53;;;;;;;2.83;2.30;;;;;;;18.91;57.81;96655.19;10424994;28;20092;-60
2022/10/22 06:20:14;;;;;;;2.30;2.10;;;;;;;18.90;57.90;96653.59;10420339;28;20049;-60
2022/10/22 06:25:33;;;;;;;2.30;2.10;;;;;;;18.92;57.83;96653.28;10419794;28;20049;-60
2022/10/22 06:30:53;;;;;;;2.67;2.47;;;;;;;18.92;57.86;96664.88;10423640;28;20072;-60
2022/10/22 06:36:14;;;;;;;2.50;2.30;;;;;;;18.94;57.87;96664.56;10419466;28;20064;-60
2022/10/22 06:41:34;;;;;;;2.28;2.08;;;;;;;18.95;57.71;96691.25;10419240;28;20053;-60
2022/10/22 06:46:53;;;;;;;2.35;2.15;;;;;;;18.98;57.91;96673.59;10423073;28;20053;-60
2022/10/22 06:52:12;;;;;;;2.40;2.20;;;;;;;19.00;57.78;96684.84;10419276;28;20061;-60
2022/10/22 06:57:32;;;;;;;2.42;2.22;;;;;;;19.03;57.90;96689.59;10422246;28;20049;-60
2022/10/22 07:02:52;;;;;;;2.78;2.50;;;;;;;19.04;57.96;96691.19;10405679;28;20057;-60
2022/10/22 07:08:11;;;;;;;2.55;2.35;;;;;;;19.07;57.93;96687.88;10418060;28;20057;-60
2022/10/22 07:13:30;;;;;;;2.60;2.40;;;;;;;19.11;57.90;96694.19;10421897;28;20523;-60
2022/10/22 07:18:50;;;;;;;2.72;2.53;;;;;;;19.13;57.76;96691.16;10417988;28;20057;-60
2022/10/22 07:24:09;;;;;;;2.72;2.53;;;;;;;19.16;57.75;96693.22;10418026;28;20054;-60
2022/10/22 07:29:29;;;;;;;2.70;2.50;;;;;;;19.19;57.85;96707.97;10422004;28;20058;-60
2022/10/22 07:34:48;;;;;;;2.45;2.25;;;;;;;19.23;57.93;96711.59;10417018;28;20562;-60
2022/10/22 07:40:08;;;;;;;2.80;2.60;;;;;;;19.26;57.79;96725.25;10416923;28;20515;-60
2022/10/22 07:45:30;;;;;;;2.60;2.30;;;;;;;19.30;57.91;96726.19;10433981;28;20053;-60
2022/10/22 07:50:50;;;;;;;2.47;2.28;;;;;;;19.33;57.65;96735.59;10429928;28;20064;-60
2022/10/22 07:56:10;;;;;;;2.60;2.40;;;;;;;19.35;57.74;96747.63;10421556;28;20461;-60
2022/10/22 08:01:29;;;;;;;2.83;2.50;;;;;;;19.40;57.79;96740.47;10416656;28;20050;-60
2022/10/22 08:06:48;;;;;;;2.50;2.30;;;;;;;19.43;57.68;96746.03;10416558;28;20382;-60
2022/10/22 08:12:08;;;;;;;2.28;2.08;;;;;;;19.45;57.71;96745.69;10418823;28;20058;-60
2022/10/22 08:17:27;;;;;;;2.60;2.40;;;;;;;19.49;57.68;96760.94;10404854;28;20179;-60
2022/10/22 08:22:46;;;;;;;3.00;2.40;;;;;;;19.53;57.65;96767.25;10429282;28;20068;-60
2022/10/22 08:28:06;;;;;;;2.40;2.20;;;;;;;19.58;57.73;96776.31;10433504;28;20049;-60
2022/10/22 08:33:26;;;;;;;2.92;2.50;;;;;;;19.61;57.76;96781.06;10415477;28;20057;-60
2022/10/22 08:38:45;;;;;;;2.50;2.30;;;;;;;19.64;57.72;96773.13;10415676;28;20076;-60
2022/10/22 08:44:41;;;;;;;2.38;2.17;;;;;;;19.68;57.56;96771.34;10419266;28;20187;-60
2022/10/22 08:50:01;;;;;;;3.05;2.47;;;;;;;19.72;57.57;96776.94;10405094;28;20053;-60
2022/10/22 08:55:22;;;;;;;2.30;2.13;;;;;;;19.75;57.58;96774.34;10417968;28;20060;-61
2022/10/22 09:00:46;;;;;;;2.35;2.15;;;;;;;19.79;57.62;96777.19;10398361;28;20505;-60
2022/10/22 09:06:12;;;;;;;2.50;2.30;;;;;;;19.83;57.61;96775.41;10398981;28;20049;-60
2022/10/22 09:11:36;;;;;;;2.30;2.10;;;;;;;19.88;57.49;96787.97;10418470;28;20061;-60
2022/10/22 09:17:14;;;;;;;2.30;2.05;;;;;;;19.91;57.37;96781.91;10413934;28;20061;-60
2022/10/22 09:22:57;;;;;;;2.30;2.10;;;;;;;19.94;57.19;96784.75;10404680;28;20045;-60
2022/10/22 09:28:16;;;;;;;2.50;2.30;;;;;;;19.98;57.20;96792.22;10395333;28;20410;-58
2022/10/22 09:33:36;;;;;;;2.42;2.22;;;;;;;20.01;57.16;96792.34;10413042;28;20309;-60
2022/10/22 09:38:56;;;;;;;2.30;2.10;;;;;;;20.05;57.20;96781.66;10417798;28;20061;-60
2022/10/22 09:44:19;;;;;;;2.40;2.20;;;;;;;20.07;57.13;96780.22;10413611;28;20053;-56
2022/10/22 09:49:39;;;;;;;2.40;2.20;;;;;;;20.12;56.98;96790.06;10413230;28;20115;-59
2022/10/22 09:55:01;;;;;;;2.30;2.10;;;;;;;20.15;56.89;96798.31;10417921;28;20128;-60
2022/10/22 10:00:23;;;;;;;2.08;1.95;;;;;;;20.19;56.99;96784.13;10412276;28;20058;-60
2022/10/22 10:05:47;;;;;;;2.30;2.10;;;;;;;20.24;56.51;96800.16;10426299;28;20390;-60
2022/10/22 10:11:24;;;;;;;2.78;2.47;;;;;;;20.26;56.63;96776.28;10414662;28;20080;-60
2022/10/22 10:16:57;;;;;;;3.30;2.20;;;;;;;20.27;56.57;96784.06;10413023;28;20096;-60
2022/10/22 10:22:23;;;;;;;2.63;2.30;;;;;;;20.31;56.53;96776.88;10416631;28;20057;-60
2022/10/22 10:27:50;;;;;;;2.78;2.33;;;;;;;20.33;56.87;96790.88;10425647;28;20400;-60
2022/10/22 10:33:15;;;;;;;2.75;2.55;;;;;;;20.37;57.01;96795.63;10425998;28;20404;-60
2022/10/22 10:38:41;;;;;;;2.90;2.60;;;;;;;20.40;56.87;96778.72;10408794;28;20056;-60
2022/10/22 10:44:28;;;;;;;2.63;2.42;;;;;;;20.42;56.80;96785.38;10405044;28;20050;-61
2022/10/22 10:49:52;;;;;;;2.25;2.15;;;;;;;20.44;56.89;96795.88;10433071;28;20386;-60
2022/10/22 10:55:49;;;;;;;2.13;2.03;;;;;;;20.47;56.89;96800.66;10423540;28;20065;-60
2022/10/22 11:01:32;;;;;;;2.50;2.30;;;;;;;20.48;56.80;96792.22;10407901;28;20076;-60
2022/10/22 11:06:53;;;;;;;3.47;2.15;;;;;;;20.50;56.87;96783.72;10423543;28;20053;-60
2022/10/22 11:12:27;;;;;;;2.45;2.00;;;;;;;20.50;56.78;96781.03;10402966;28;20061;-60
2022/10/22 11:17:47;;;;;;;3.08;2.40;;;;;;;20.52;56.81;96779.59;10418914;28;20075;-60
2022/10/22 11:23:15;;;;;;;2.38;2.17;;;;;;;20.54;56.75;96784.66;10422212;28;20108;-60
2022/10/22 11:28:40;;;;;;;2.05;1.92;;;;;;;20.53;56.76;96789.28;10405560;28;20057;-60
2022/10/22 11:34:28;;;;;;;1.83;1.73;;;;;;;20.53;56.84;96789.28;10418099;28;20060;-60
2022/10/22 11:39:58;;;;;;;2.50;2.30;;;;;;;20.53;56.97;96783.88;10416771;28;20061;-61
2022/10/22 11:45:19;;;;;;;2.10;1.90;;;;;;;20.54;56.88;96776.53;10421598;28;20046;-58
2022/10/22 11:51:36;;;;;;;2.30;2.10;;;;;;;20.54;56.76;96771.13;10420896;28;20111;-58
2022/10/22 11:57:26;;;;;;;2.17;2.00;;;;;;;20.54;56.82;96766.53;10323989;28;20106;-60
2022/10/22 12:02:45;;;;;;;2.10;1.90;;;;;;;20.56;56.93;96771.56;10330295;28;20058;-61
2022/10/22 12:08:08;;;;;;;1.75;1.65;;;;;;;20.57;56.88;96770.47;10333465;28;20460;-61
2022/10/22 12:13:33;;;;;;;1.70;1.60;;;;;;;20.57;56.86;96770.47;10290010;28;20063;-60
2022/10/22 12:18:56;;;;;;;2.00;1.83;;;;;;;20.57;56.93;96762.34;10294390;28;20104;-60
2022/10/22 12:24:19;;;;;;;2.17;1.98;;;;;;;20.57;57.01;96770.47;10300287;28;20058;-60
2022/10/22 12:29:38;;;;;;;1.90;1.80;;;;;;;20.58;56.75;96766.66;10375307;28;20062;-60
2022/10/22 12:35:03;;;;;;;1.80;1.70;;;;;;;20.58;56.88;96773.97;10376753;28;20093;-59
2022/10/22 12:40:26;;;;;;;1.88;1.77;;;;;;;20.59;56.91;96779.09;10374454;28;20054;-60
2022/10/22 12:45:47;;;;;;;1.92;1.80;;;;;;;20.58;57.05;96774.78;10374095;28;20065;-60
2022/10/22 12:51:08;;;;;;;1.85;1.75;;;;;;;20.58;56.97;96779.38;10391701;28;20397;-59
2022/10/22 12:56:31;;;;;;;1.83;1.70;;;;;;;20.59;56.88;96778.28;10359379;28;20133;-60
2022/10/22 13:01:51;;;;;;;2.60;1.73;;;;;;;20.58;56.94;96777.47;10372987;28;20069;-60
2022/10/22 13:07:13;;;;;;;1.83;1.70;;;;;;;20.58;57.03;96782.91;10375442;28;20054;-60
2022/10/22 13:12:36;;;;;;;2.03;1.70;;;;;;;20.58;56.99;96782.09;10407051;28;20049;-60
2022/10/22 13:18:25;;;;;;;1.83;1.73;;;;;;;20.58;56.96;96793.72;10417979;28;20053;-60
2022/10/22 13:23:52;;;;;;;1.70;1.60;;;;;;;20.57;57.04;96785.94;10381155;28;20084;-60
2022/10/22 13:29:13;;;;;;;1.70;1.60;;;;;;;20.58;56.96;96790.19;10411907;28;20050;-60
2022/10/22 13:34:34;;;;;;;1.70;1.60;;;;;;;20.56;57.13;96787.81;10418373;28;20103;-60
2022/10/22 13:39:53;;;;;;;1.85;1.75;;;;;;;20.57;57.03;96789.41;10426178;28;20408;-61
2022/10/22 13:45:13;;;;;;;1.65;1.55;;;;;;;20.55;57.14;96789.75;10413012;28;20061;-60
2022/10/22 13:50:32;;;;;;;2.28;1.60;;;;;;;20.55;57.05;96797.88;10417718;28;20061;-60
2022/10/22 13:55:52;;;;;;;1.80;1.70;;;;;;;20.58;57.12;96799.13;10412567;28;20061;-60
2022/10/22 14:01:22;;;;;;;1.60;1.50;;;;;;;20.56;57.14;96795.94;10416971;28;20049;-61
2022/10/22 14:06:42;;;;;;;1.60;1.50;;;;;;;20.55;56.96;96792.44;10413293;28;20061;-60
2022/10/22 14:12:01;;;;;;;1.77;1.67;;;;;;;20.56;57.12;96795.94;10414119;28;20505;-60
2022/10/22 14:17:21;;;;;;;1.50;1.40;;;;;;;20.56;57.16;96798.66;10399040;28;20053;-60
2022/10/22 14:22:40;;;;;;;1.70;1.60;;;;;;;20.55;57.07;96794.38;10420778;28;20049;-60
2022/10/22 14:27:59;;;;;;;1.60;1.50;;;;;;;20.55;57.26;96797.06;10420175;28;20497;-60
2022/10/22 14:33:20;;;;;;;1.60;1.50;;;;;;;20.54;57.29;96803.59;10425178;28;20057;-60
2022/10/22 14:38:41;;;;;;;1.80;1.40;;;;;;;20.53;57.22;96802.03;10420005;28;20054;-60
2022/10/22 14:44:00;;;;;;;1.50;1.40;;;;;;;20.53;57.29;96802.81;10420027;28;20473;-60
2022/10/22 14:49:19;;;;;;;1.50;1.30;;;;;;;20.53;57.25;96807.44;10417815;28;20111;-60
2022/10/22 14:54:39;;;;;;;1.58;1.48;;;;;;;20.53;57.27;96812.84;10419232;28;20725;-61
2022/10/22 14:59:58;;;;;;;1.60;1.50;;;;;;;20.53;57.22;96826.38;10422914;28;20064;-60
2022/10/22 15:05:18;;;;;;;1.60;1.50;;;;;;;20.52;57.21;96831.00;10419415;28;20111;-60
2022/10/22 15:10:39;;;;;;;1.67;1.58;;;;;;;20.51;57.26;96834.03;10418092;28;20074;-60
2022/10/22 15:15:59;;;;;;;1.40;1.30;;;;;;;20.50;57.15;96841.38;10421918;28;20061;-60
2022/10/22 15:21:21;;;;;;;1.48;1.38;;;;;;;20.50;57.15;96840.56;10417991;28;20053;-60
2022/10/22 15:26:41;;;;;;;1.58;1.33;;;;;;;20.49;57.20;96844.41;10430776;28;20050;-61
2022/10/22 15:32:00;;;;;;;1.65;1.55;;;;;;;20.49;57.28;96866.06;10423715;28;20116;-60
2022/10/22 15:37:20;;;;;;;1.50;1.40;;;;;;;20.47;57.31;96863.66;10417805;28;20057;-60
2022/10/22 15:42:40;;;;;;;1.58;1.48;;;;;;;20.47;57.23;96871.00;10419310;28;20175;-60
2022/10/22 15:47:59;;;;;;;1.33;1.23;;;;;;;20.47;57.30;96881.81;10417234;28;20066;-60
2022/10/22 15:53:18;;;;;;;1.27;1.17;;;;;;;20.46;57.32;96889.13;10417272;28;20408;-60
2022/10/22 15:58:38;;;;;;;1.60;1.50;;;;;;;20.45;57.24;96889.47;10421404;28;20103;-60
2022/10/22 16:04:01;;;;;;;1.40;1.30;;;;;;;20.44;57.19;96888.66;10416835;28;20084;-60
2022/10/22 16:09:23;;;;;;;1.38;1.27;;;;;;;20.44;57.19;96902.19;10405032;28;20112;-60
2022/10/22 16:14:43;;;;;;;1.20;1.20;;;;;;;20.44;57.19;96909.53;10420255;28;20049;-60
2022/10/22 16:20:02;;;;;;;1.40;1.30;;;;;;;20.45;57.26;96919.25;10415659;28;20489;-60
2022/10/22 16:25:23;;;;;;;1.42;1.33;;;;;;;20.42;57.23;96920.69;10403331;28;20058;-58
2022/10/22 16:30:42;;;;;;;1.33;1.23;;;;;;;20.42;57.22;96936.13;10419199;28;20060;-60
2022/10/22 16:36:02;;;;;;;1.20;1.10;;;;;;;20.41;57.22;96943.47;10414592;28;20108;-60
2022/10/22 16:41:23;;;;;;;1.30;1.20;;;;;;;20.41;57.28;96948.09;10418924;28;20049;-60
2022/10/22 16:46:43;;;;;;;1.30;1.20;;;;;;;20.39;57.15;96940.28;10417672;28;20071;-61
2022/10/22 16:52:02;;;;;;;1.30;1.20;;;;;;;20.39;57.16;96955.72;10414976;28;20053;-60
2022/10/22 16:57:22;;;;;;;1.33;1.23;;;;;;;20.39;57.23;96963.84;10419280;28;20058;-60
2022/10/22 17:02:42;;;;;;;1.20;1.10;;;;;;;20.38;57.29;96964.97;10401940;28;20107;-60
2022/10/22 17:08:01;;;;;;;1.27;1.17;;;;;;;20.38;57.26;96964.97;10414528;28;20064;-60
2022/10/22 17:13:21;;;;;;;1.15;1.08;;;;;;;20.37;57.36;96971.50;10417404;28;20068;-60
2022/10/22 17:18:41;;;;;;;1.30;1.20;;;;;;;20.36;57.29;96986.91;10414200;28;20061;-60
2022/10/22 17:24:00;;;;;;;1.30;1.20;;;;;;;20.35;57.24;96988.06;10402694;28;20056;-60
2022/10/22 17:29:20;;;;;;;1.20;1.10;;;;;;;20.35;57.33;97007.00;10417221;28;20064;-60
2022/10/22 17:34:40;;;;;;;1.17;1.10;;;;;;;20.34;57.25;97008.88;10413871;28;20064;-60
2022/10/22 17:40:00;;;;;;;1.08;1.00;;;;;;;20.33;57.26;97011.94;10405322;28;20053;-60
2022/10/22 17:45:19;;;;;;;1.35;1.25;;;;;;;20.32;57.29;97019.22;10426311;28;20107;-58
2022/10/22 17:50:40;;;;;;;1.00;1.00;;;;;;;20.31;57.30;97023.06;10412953;28;20054;-60
2022/10/22 17:56:02;;;;;;;0.90;0.90;;;;;;;20.30;57.22;97026.88;10417251;28;20062;-59
2022/10/22 18:01:30;;;;;;;1.20;1.10;;;;;;;20.30;57.22;97032.28;10398260;28;20089;-60
2022/10/22 18:06:50;;;;;;;1.10;0.90;;;;;;;20.30;57.23;97036.91;10413075;28;20072;-61
2022/10/22 18:12:12;;;;;;;1.20;1.10;;;;;;;20.29;57.21;97043.47;10415556;28;20061;-60
2022/10/22 18:17:32;;;;;;;1.15;1.10;;;;;;;20.28;57.18;97052.69;10401297;28;20053;-60
2022/10/22 18:22:53;;;;;;;1.10;1.10;;;;;;;20.27;57.21;97065.41;10412454;28;20053;-60
2022/10/22 18:28:13;;;;;;;1.30;1.20;;;;;;;20.27;57.23;97054.59;10410354;28;20065;-60
2022/10/22 18:33:37;;;;;;;1.20;1.10;;;;;;;20.26;57.17;97058.41;10400636;28;20053;-60
2022/10/22 18:39:01;;;;;;;1.10;1.00;;;;;;;20.25;57.19;97056.84;10400778;28;20057;-60
2022/10/22 18:44:23;;;;;;;1.30;1.20;;;;;;;20.25;57.14;97062.25;10425067;28;20056;-60
2022/10/22 18:49:43;;;;;;;1.10;1.10;;;;;;;20.24;57.20;97066.06;10412253;28;20061;-60
2022/10/22 18:55:03;;;;;;;1.17;1.10;;;;;;;20.22;57.27;97068.28;10416364;28;20404;-60
2022/10/22 19:00:25;;;;;;;1.20;1.10;;;;;;;20.22;57.26;97062.88;10416003;28;20428;-60
2022/10/22 19:05:53;;;;;;;0.98;0.98;;;;;;;20.21;57.20;97077.53;10419015;28;20061;-60
2022/10/22 19:11:15;;;;;;;0.90;0.90;;;;;;;20.22;57.17;97078.31;10427080;28;20062;-60
2022/10/22 19:16:36;;;;;;;1.17;1.10;;;;;;;20.21;57.17;97082.13;10432076;28;20515;-60
2022/10/22 19:21:55;;;;;;;1.08;1.00;;;;;;;20.20;57.16;97075.94;10422806;28;20063;-60
2022/10/22 19:27:16;;;;;;;1.08;1.08;;;;;;;20.19;57.17;97090.59;10408032;28;20464;-60
2022/10/22 19:32:35;;;;;;;1.20;1.10;;;;;;;20.19;57.23;97096.00;10418350;28;20058;-60
2022/10/22 19:37:55;;;;;;;1.40;1.30;;;;;;;20.18;57.17;97101.72;10435685;28;20409;-60
2022/10/22 19:43:14;;;;;;;1.10;1.00;;;;;;;20.15;57.22;97093.13;10418804;28;20056;-60
2022/10/22 19:48:34;;;;;;;1.10;1.00;;;;;;;20.15;57.27;97101.25;10415996;28;20052;-60
2022/10/22 19:54:05;;;;;;;1.15;1.05;;;;;;;20.15;57.18;97105.88;10434034;28;20045;-60
2022/10/22 19:59:26;;;;;;;1.10;1.10;;;;;;;20.14;57.20;97107.75;10418563;28;20057;-60
2022/10/22 20:04:45;;;;;;;0.98;0.98;;;;;;;20.13;57.22;97108.06;10417197;28;20057;-60
2022/10/22 20:10:05;;;;;;;1.10;1.00;;;;;;;20.12;57.16;97117.31;10426129;28;20456;-61
2022/10/22 20:15:26;;;;;;;1.08;0.98;;;;;;;20.12;57.27;97117.31;10427088;28;20065;-60
2022/10/22 20:20:45;;;;;;;1.20;1.10;;;;;;;20.12;57.19;97115.41;10410176;28;20057;-60
2022/10/22 20:26:05;;;;;;;1.27;1.10;;;;;;;20.10;57.18;97114.94;10429407;28;20059;-61
2022/10/22 20:31:28;;;;;;;1.00;1.00;;;;;;;20.09;57.22;97115.25;10416083;28;20058;-60
2022/10/22 20:36:47;;;;;;;1.27;1.17;;;;;;;20.09;57.18;97117.94;10408094;28;20064;-58
2022/10/22 20:42:06;;;;;;;1.02;1.00;;;;;;;20.08;57.20;97119.06;10415713;28;20053;-60
2022/10/22 20:47:26;;;;;;;1.13;1.02;;;;;;;20.08;57.29;97132.59;10415398;28;20076;-60
2022/10/22 20:52:47;;;;;;;1.10;1.00;;;;;;;20.06;57.20;97129.41;10432063;28;20057;-61
2022/10/22 20:58:06;;;;;;;1.00;1.00;;;;;;;20.05;57.20;97131.34;10405519;28;20429;-60
2022/10/22 21:03:25;;;;;;;0.93;0.93;;;;;;;20.05;57.19;97133.22;10414691;28;20081;-60
2022/10/22 21:08:45;;;;;;;1.00;1.00;;;;;;;20.04;57.16;97142.47;10412108;28;20131;-60
2022/10/22 21:14:05;;;;;;;1.23;1.13;;;;;;;20.04;57.28;97134.34;10402807;28;20148;-60
2022/10/22 21:19:25;;;;;;;1.23;1.13;;;;;;;20.04;57.26;97137.06;10416929;28;20508;-59
2022/10/22 21:24:45;;;;;;;0.93;0.93;;;;;;;20.02;57.21;97156.31;10413419;28;20057;-60
2022/10/22 21:30:04;;;;;;;1.20;1.10;;;;;;;20.02;57.12;97155.50;10413941;28;20123;-60
2022/10/22 21:35:24;;;;;;;1.15;1.05;;;;;;;20.00;57.17;97157.75;10417000;28;20057;-59
2022/10/22 21:40:43;;;;;;;1.10;1.00;;;;;;;20.00;57.17;97152.34;10413623;28;20119;-60
2022/10/22 21:46:23;;;;;;;0.90;0.90;;;;;;;19.99;57.20;97150.72;10426709;28;20042;-60
2022/10/22 21:51:43;;;;;;;1.00;0.98;;;;;;;19.99;57.07;97150.72;10417193;28;20064;-60
2022/10/22 21:57:03;;;;;;;0.98;0.90;;;;;;;19.97;57.22;97132.09;10426509;28;20060;-60
2022/10/22 22:02:22;;;;;;;1.10;1.10;;;;;;;19.98;57.20;97132.94;10416672;28;20045;-60
2022/10/22 22:07:42;;;;;;;0.98;0.98;;;;;;;19.98;57.11;97143.75;10414323;28;20053;-60
2022/10/22 22:13:01;;;;;;;0.90;0.90;;;;;;;19.95;57.23;97139.75;10412392;28;20071;-60
2022/10/22 22:18:20;;;;;;;0.85;0.85;;;;;;;19.95;57.23;97143.28;10417324;28;20062;-60
2022/10/22 22:23:43;;;;;;;0.93;0.93;;;;;;;19.94;57.27;97138.97;10400552;28;20050;-60
2022/10/22 22:29:02;;;;;;;0.93;0.90;;;;;;;19.93;57.21;97137.38;10397912;28;20061;-60
2022/10/22 22:34:21;;;;;;;3.17;0.98;;;;;;;19.92;57.19;97146.59;10422871;28;20057;-60
2022/10/22 22:39:41;;;;;;;1.10;1.00;;;;;;;19.92;57.18;97145.81;10420625;28;20061;-60
2022/10/22 22:45:01;;;;;;;0.93;0.93;;;;;;;19.92;57.29;97152.00;10409203;28;20080;-60
2022/10/22 22:50:21;;;;;;;0.90;0.90;;;;;;;19.90;57.24;97143.41;10437412;28;20056;-60
2022/10/22 22:55:40;;;;;;;0.90;0.90;;;;;;;19.90;57.23;97143.41;10432947;28;20513;-60
2022/10/22 23:01:15;;;;;;;0.90;0.90;;;;;;;19.90;57.24;97142.63;10410587;28;20075;-61
2022/10/22 23:06:36;;;;;;;0.82;0.82;;;;;;;19.87;57.22;97144.03;10420053;28;20064;-60
2022/10/22 23:11:55;;;;;;;0.80;0.80;;;;;;;19.88;57.24;97147.56;10430791;28;20060;-60
2022/10/22 23:17:14;;;;;;;0.75;0.70;;;;;;;19.87;57.25;97149.44;10422508;28;20116;-60
2022/10/22 23:22:34;;;;;;;1.10;0.90;;;;;;;19.87;57.26;97138.63;10419011;28;20045;-60
2022/10/22 23:27:53;;;;;;;0.88;0.88;;;;;;;19.85;57.29;97138.16;10431859;28;20061;-60
2022/10/22 23:33:12;;;;;;;0.90;0.90;;;;;;;19.85;57.32;97140.84;10436945;28;20115;-60
2022/10/22 23:38:36;;;;;;;1.00;0.90;;;;;;;19.84;57.18;97147.41;10402939;28;20501;-60
2022/10/22 23:43:55;;;;;;;0.70;0.70;;;;;;;19.83;57.28;97140.38;10416941;28;20405;-60
2022/10/22 23:49:15;;;;;;;0.93;0.90;;;;;;;19.84;57.35;97133.88;10415021;28;20064;-60
2022/10/22 23:54:34;;;;;;;0.80;0.80;;;;;;;19.84;57.68;97133.88;10417548;28;20057;-61
2022/10/22 23:59:54;;;;;;;0.98;0.95;;;;;;;19.81;57.37;97145.31;10421466;28;20061;-60
